Temp: 17.3°C   Baro: 1023.7mb
  Wind: 2.9mph   Dir: WNW (282°)
  Rain: 7.0mm (0.0mm/hr)
  Solar: 186W/m2  Hum: 66%

Historic data

Bath Spa Weather Station Historical Data
Daily Summary for August 02, 2022 Units:  Both    English   Metric
Daily Weekly Monthly Yearly Custom
  High: Low: Average:
Temperature: 77.2 °F /  25.1 °C 65.5 °F /  18.6 °C 69.6 °F /  20.9 °C
Dew Point: 66.7 °F /  19.3 °C 59.9 °F /  15.5 °C 63.5 °F /  17.5 °C
Humidity: 87% 67.8% 81%
Wind Speed: 12.7mph /  20.4km/h - 5.4mph /  8.7km/h
Wind Gust: 21mph /  33.8km/h - -
Wind- - WSW
Pressure: 30.04 in /  1017.2 hPa 29.94 in /  1013.8 hPa -
Precipitation: 0.00 in /  0 mm    
Historical Graphs
 
 
Tabular Data for August 02, 2022
Time Temperature Dew Point Pressure Wind Wind Speed Wind Gust Humidity Rainfall Rate (Hourly) solar
00:09 65.8 °F /  18.8 °C 60.2 °F /  15.7 °C 30.04in /  1017.2hPa WSW 1.7mph /  2.7km/h 4mph /  6.4km/h 81.8% 0.00in /  0mm 0 W/m2
00:14 65.8 °F /  18.8 °C 59.9 °F /  15.5 °C 30.04in /  1017.2hPa WSW 1.3mph /  2.1km/h 4mph /  6.4km/h 81% 0.00in /  0mm 0 W/m2
00:19 65.9 °F /  18.8 °C 60.1 °F /  15.6 °C 30.04in /  1017.2hPa SW 2.2mph /  3.5km/h 5mph /  8km/h 81% 0.00in /  0mm 0 W/m2
00:24 66 °F /  18.9 °C 60.1 °F /  15.6 °C 30.04in /  1017.2hPa SW 0.2mph /  0.3km/h 3mph /  4.8km/h 81% 0.00in /  0mm 0 W/m2
00:29 66 °F /  18.9 °C 60.1 °F /  15.6 °C 30.04in /  1017.2hPa SW 1.2mph /  1.9km/h 2mph /  3.2km/h 81% 0.00in /  0mm 0 W/m2
00:34 66 °F /  18.9 °C 60.1 °F /  15.6 °C 30.04in /  1017.2hPa SW 0.8mph /  1.3km/h 3mph /  4.8km/h 81% 0.00in /  0mm 0 W/m2
00:39 66 °F /  18.9 °C 60.1 °F /  15.6 °C 30.04in /  1017.2hPa SW 1.1mph /  1.8km/h 4mph /  6.4km/h 81% 0.00in /  0mm 0 W/m2
00:44 66 °F /  18.9 °C 60.2 °F /  15.7 °C 30.04in /  1017.2hPa SW 1.5mph /  2.4km/h 4mph /  6.4km/h 81.2% 0.00in /  0mm 0 W/m2
00:49 65.8 °F /  18.8 °C 60.3 °F /  15.7 °C 30.04in /  1017.2hPa SW 1.5mph /  2.4km/h 3mph /  4.8km/h 82% 0.00in /  0mm 0 W/m2
00:54 65.7 °F /  18.7 °C 60.2 °F /  15.7 °C 30.04in /  1017.2hPa SW 0.8mph /  1.3km/h 3mph /  4.8km/h 82% 0.00in /  0mm 0 W/m2
00:59 65.7 °F /  18.7 °C 60.3 °F /  15.7 °C 30.04in /  1017.2hPa SW 3.2mph /  5.1km/h 5mph /  8km/h 82.6% 0.00in /  0mm 0 W/m2
01:04 65.7 °F /  18.7 °C 60.4 °F /  15.8 °C 30.03in /  1016.8hPa SW 2.1mph /  3.4km/h 6mph /  9.7km/h 83% 0.00in /  0mm 0 W/m2
01:09 65.8 °F /  18.8 °C 60.5 °F /  15.8 °C 30.04in /  1017.2hPa WSW 4.4mph /  7.1km/h 9mph /  14.5km/h 83% 0.00in /  0mm 0 W/m2
01:14 65.9 °F /  18.8 °C 60.6 °F /  15.9 °C 30.03in /  1016.8hPa WSW 5.2mph /  8.4km/h 10mph /  16.1km/h 83% 0.00in /  0mm 0 W/m2
01:19 66 °F /  18.9 °C 60.6 °F /  15.9 °C 30.03in /  1016.8hPa WSW 7.6mph /  12.2km/h 11mph /  17.7km/h 83% 0.00in /  0mm 0 W/m2
01:24 66.2 °F /  19 °C 60.8 °F /  16 °C 30.03in /  1016.8hPa WSW 4.8mph /  7.7km/h 9mph /  14.5km/h 83% 0.00in /  0mm 0 W/m2
01:29 66.2 °F /  19 °C 60.8 °F /  16 °C 30.03in /  1016.8hPa SW 4mph /  6.4km/h 8mph /  12.9km/h 83% 0.00in /  0mm 0 W/m2
01:34 66.4 °F /  19.1 °C 61 °F /  16.1 °C 30.03in /  1016.8hPa WSW 4mph /  6.4km/h 10mph /  16.1km/h 83% 0.00in /  0mm 0 W/m2
01:39 66.4 °F /  19.1 °C 61 °F /  16.1 °C 30.03in /  1016.8hPa SW 4.9mph /  7.9km/h 10mph /  16.1km/h 83% 0.00in /  0mm 0 W/m2
01:44 66.4 °F /  19.1 °C 61 °F /  16.1 °C 30.03in /  1016.8hPa WSW 4.7mph /  7.6km/h 10mph /  16.1km/h 83% 0.00in /  0mm 0 W/m2
01:49 66.2 °F /  19 °C 60.8 °F /  16 °C 30.03in /  1016.8hPa WSW 4.1mph /  6.6km/h 10mph /  16.1km/h 83% 0.00in /  0mm 0 W/m2
01:54 66.2 °F /  19 °C 60.8 °F /  16 °C 30.03in /  1016.8hPa WSW 3.7mph /  6km/h 9mph /  14.5km/h 83.2% 0.00in /  0mm 0 W/m2
01:59 66.2 °F /  19 °C 61.2 °F /  16.2 °C 30.02in /  1016.5hPa WSW 5.9mph /  9.5km/h 10mph /  16.1km/h 84% 0.00in /  0mm 0 W/m2
02:04 66.1 °F /  18.9 °C 61.1 °F /  16.2 °C 30.02in /  1016.5hPa WSW 3.4mph /  5.5km/h 10mph /  16.1km/h 84% 0.00in /  0mm 0 W/m2
02:09 66.2 °F /  19 °C 61.2 °F /  16.2 °C 30.02in /  1016.5hPa WSW 4mph /  6.4km/h 11mph /  17.7km/h 84% 0.00in /  0mm 0 W/m2
02:14 66.2 °F /  19 °C 61.2 °F /  16.2 °C 30.02in /  1016.5hPa WSW 5.3mph /  8.5km/h 9mph /  14.5km/h 84% 0.00in /  0mm 0 W/m2
02:19 66.2 °F /  19 °C 61.2 °F /  16.2 °C 30.01in /  1016.1hPa SW 4mph /  6.4km/h 8mph /  12.9km/h 84% 0.00in /  0mm 0 W/m2
02:24 66.2 °F /  19 °C 61.2 °F /  16.2 °C 30.02in /  1016.5hPa WSW 4.8mph /  7.7km/h 10mph /  16.1km/h 84% 0.00in /  0mm 0 W/m2
02:29 66.2 °F /  19 °C 61.2 °F /  16.2 °C 30.02in /  1016.5hPa WSW 4.8mph /  7.7km/h 8mph /  12.9km/h 84% 0.00in /  0mm 0 W/m2
02:34 66.1 °F /  18.9 °C 61.1 °F /  16.2 °C 30.01in /  1016.1hPa WSW 4.5mph /  7.2km/h 9mph /  14.5km/h 84% 0.00in /  0mm 0 W/m2
02:39 66.1 °F /  18.9 °C 61.2 °F /  16.2 °C 30.01in /  1016.1hPa SW 7.2mph /  11.6km/h 11mph /  17.7km/h 84.4% 0.00in /  0mm 0 W/m2
02:44 66.1 °F /  18.9 °C 61.3 °F /  16.3 °C 30.02in /  1016.5hPa SW 6mph /  9.7km/h 10mph /  16.1km/h 85% 0.00in /  0mm 0 W/m2
02:49 66 °F /  18.9 °C 61.3 °F /  16.3 °C 30.02in /  1016.5hPa West 3.7mph /  6km/h 9mph /  14.5km/h 85% 0.00in /  0mm 0 W/m2
02:54 66 °F /  18.9 °C 61.3 °F /  16.3 °C 30.02in /  1016.5hPa WSW 4.6mph /  7.4km/h 9mph /  14.5km/h 85% 0.00in /  0mm 0 W/m2
02:59 65.9 °F /  18.8 °C 61.3 °F /  16.3 °C 30.01in /  1016.1hPa West 4.4mph /  7.1km/h 9mph /  14.5km/h 85% 0.00in /  0mm 0 W/m2
03:04 65.9 °F /  18.8 °C 61.2 °F /  16.2 °C 30.01in /  1016.1hPa WSW 4.7mph /  7.6km/h 10mph /  16.1km/h 85% 0.00in /  0mm 0 W/m2
03:09 65.8 °F /  18.8 °C 61.2 °F /  16.2 °C 30.01in /  1016.1hPa WSW 5.4mph /  8.7km/h 10mph /  16.1km/h 85% 0.00in /  0mm 0 W/m2
03:14 65.8 °F /  18.8 °C 61.2 °F /  16.2 °C 30.01in /  1016.1hPa WSW 3.5mph /  5.6km/h 8mph /  12.9km/h 85% 0.00in /  0mm 0 W/m2
03:19 65.7 °F /  18.7 °C 61.1 °F /  16.2 °C 30.01in /  1016.1hPa WSW 5.6mph /  9km/h 10mph /  16.1km/h 85% 0.00in /  0mm 0 W/m2
03:24 65.7 °F /  18.7 °C 61.1 °F /  16.2 °C 30.01in /  1016.1hPa SW 5mph /  8km/h 10mph /  16.1km/h 85.4% 0.00in /  0mm 0 W/m2
03:29 65.7 °F /  18.7 °C 61.3 °F /  16.3 °C 30.01in /  1016.1hPa SW 4.5mph /  7.2km/h 8mph /  12.9km/h 86% 0.00in /  0mm 0 W/m2
03:34 65.6 °F /  18.7 °C 61.2 °F /  16.2 °C 30.01in /  1016.1hPa SW 7mph /  11.3km/h 10mph /  16.1km/h 86% 0.00in /  0mm 0 W/m2
03:38 65.6 °F /  18.7 °C 61.2 °F /  16.2 °C 30.01in /  1016.1hPa SW 5.5mph /  8.9km/h 9mph /  14.5km/h 86% 0.00in /  0mm 0 W/m2
03:44 65.5 °F /  18.6 °C 61.2 °F /  16.2 °C 30.01in /  1016.1hPa WSW 6mph /  9.7km/h 11mph /  17.7km/h 86% 0.00in /  0mm 0 W/m2
03:49 65.6 °F /  18.7 °C 61.2 °F /  16.2 °C 30.00in /  1015.8hPa WSW 6mph /  9.7km/h 12mph /  19.3km/h 86% 0.00in /  0mm 0 W/m2
03:54 65.7 °F /  18.7 °C 61.3 °F /  16.3 °C 30.00in /  1015.8hPa WSW 6.2mph /  10km/h 10mph /  16.1km/h 86% 0.00in /  0mm 0 W/m2
03:59 65.7 °F /  18.7 °C 61.3 °F /  16.3 °C 30.00in /  1015.8hPa WSW 6.3mph /  10.1km/h 12mph /  19.3km/h 86% 0.00in /  0mm 0 W/m2
04:04 65.7 °F /  18.7 °C 61.3 °F /  16.3 °C 30.00in /  1015.8hPa SW 5.4mph /  8.7km/h 12mph /  19.3km/h 86% 0.00in /  0mm 0 W/m2
04:09 65.7 °F /  18.7 °C 61.3 °F /  16.3 °C 30.00in /  1015.8hPa SW 4.4mph /  7.1km/h 10mph /  16.1km/h 86% 0.00in /  0mm 0 W/m2
04:14 65.7 °F /  18.7 °C 61.4 °F /  16.3 °C 30.00in /  1015.8hPa SW 6.1mph /  9.8km/h 10mph /  16.1km/h 86% 0.00in /  0mm 0 W/m2
04:19 65.7 °F /  18.7 °C 61.3 °F /  16.3 °C 30.00in /  1015.8hPa SW 7.4mph /  11.9km/h 12mph /  19.3km/h 86% 0.00in /  0mm 0 W/m2
04:24 65.7 °F /  18.7 °C 61.4 °F /  16.3 °C 29.99in /  1015.5hPa WSW 6.3mph /  10.1km/h 11mph /  17.7km/h 86% 0.00in /  0mm 0 W/m2
04:29 65.7 °F /  18.7 °C 61.4 °F /  16.3 °C 29.99in /  1015.5hPa WSW 6.2mph /  10km/h 11mph /  17.7km/h 86% 0.00in /  0mm 0 W/m2
04:34 65.7 °F /  18.7 °C 61.4 °F /  16.3 °C 29.99in /  1015.5hPa WSW 4.1mph /  6.6km/h 9mph /  14.5km/h 86% 0.00in /  0mm 0 W/m2
04:39 65.8 °F /  18.8 °C 61.5 °F /  16.4 °C 29.99in /  1015.5hPa WSW 4.1mph /  6.6km/h 9mph /  14.5km/h 86% 0.00in /  0mm 0 W/m2
04:44 65.8 °F /  18.8 °C 61.5 °F /  16.4 °C 29.99in /  1015.5hPa SW 3.6mph /  5.8km/h 8mph /  12.9km/h 86% 0.00in /  0mm 0 W/m2
04:49 65.7 °F /  18.7 °C 61.3 °F /  16.3 °C 29.99in /  1015.5hPa SW 4.1mph /  6.6km/h 9mph /  14.5km/h 86% 0.00in /  0mm 0 W/m2
04:54 65.7 °F /  18.7 °C 61.4 °F /  16.3 °C 29.99in /  1015.5hPa SW 4.5mph /  7.2km/h 9mph /  14.5km/h 86.2% 0.00in /  0mm 0 W/m2
04:59 65.7 °F /  18.7 °C 61.7 °F /  16.5 °C 29.99in /  1015.5hPa SW 4.2mph /  6.8km/h 9mph /  14.5km/h 87% 0.00in /  0mm 0 W/m2
05:04 65.6 °F /  18.7 °C 61.6 °F /  16.4 °C 29.99in /  1015.5hPa SW 3.7mph /  6km/h 7mph /  11.3km/h 87% 0.00in /  0mm 0 W/m2
05:09 65.5 °F /  18.6 °C 61.5 °F /  16.4 °C 29.99in /  1015.5hPa SW 4mph /  6.4km/h 6mph /  9.7km/h 87% 0.00in /  0mm 0 W/m2
05:14 65.5 °F /  18.6 °C 61.5 °F /  16.4 °C 29.99in /  1015.5hPa SW 3.2mph /  5.1km/h 7mph /  11.3km/h 87% 0.00in /  0mm 0 W/m2
05:19 65.5 °F /  18.6 °C 61.5 °F /  16.4 °C 29.99in /  1015.5hPa SW 2.1mph /  3.4km/h 4mph /  6.4km/h 87% 0.00in /  0mm 0 W/m2
05:24 65.5 °F /  18.6 °C 61.5 °F /  16.4 °C 29.99in /  1015.5hPa SW 2.9mph /  4.7km/h 7mph /  11.3km/h 87% 0.00in /  0mm 0 W/m2
05:29 65.5 °F /  18.6 °C 61.5 °F /  16.4 °C 29.99in /  1015.5hPa WSW 2.9mph /  4.7km/h 7mph /  11.3km/h 87% 0.00in /  0mm 0 W/m2
05:34 65.5 °F /  18.6 °C 61.5 °F /  16.4 °C 29.99in /  1015.5hPa SW 1.7mph /  2.7km/h 7mph /  11.3km/h 87% 0.00in /  0mm 0 W/m2
05:39 65.5 °F /  18.6 °C 61.5 °F /  16.4 °C 29.99in /  1015.5hPa SW 2.6mph /  4.2km/h 4mph /  6.4km/h 87% 0.00in /  0mm 0 W/m2
05:44 65.5 °F /  18.6 °C 61.5 °F /  16.4 °C 29.99in /  1015.5hPa SW 2.4mph /  3.9km/h 5mph /  8km/h 87% 0.00in /  0mm 0 W/m2
05:49 65.5 °F /  18.6 °C 61.5 °F /  16.4 °C 29.99in /  1015.5hPa West 3.6mph /  5.8km/h 7mph /  11.3km/h 87% 0.00in /  0mm 0 W/m2
05:54 65.5 °F /  18.6 °C 61.5 °F /  16.4 °C 29.99in /  1015.5hPa West 3.1mph /  5km/h 5mph /  8km/h 87% 0.00in /  0mm 7 W/m2
05:59 65.5 °F /  18.6 °C 61.5 °F /  16.4 °C 29.99in /  1015.5hPa WSW 4.4mph /  7.1km/h 8mph /  12.9km/h 87% 0.00in /  0mm 9 W/m2
06:04 65.6 °F /  18.7 °C 61.6 °F /  16.4 °C 29.99in /  1015.5hPa West 2.2mph /  3.5km/h 7mph /  11.3km/h 87% 0.00in /  0mm 16 W/m2
06:09 65.7 °F /  18.7 °C 61.7 °F /  16.5 °C 29.99in /  1015.5hPa WSW 1.7mph /  2.7km/h 5mph /  8km/h 87% 0.00in /  0mm 18 W/m2
06:14 65.7 °F /  18.7 °C 61.7 °F /  16.5 °C 29.99in /  1015.5hPa SW 4.5mph /  7.2km/h 10mph /  16.1km/h 87% 0.00in /  0mm 23 W/m2
06:19 65.8 °F /  18.8 °C 61.9 °F /  16.6 °C 29.99in /  1015.5hPa WSW 3.9mph /  6.3km/h 9mph /  14.5km/h 87% 0.00in /  0mm 23 W/m2
06:24 65.8 °F /  18.8 °C 61.9 °F /  16.6 °C 29.99in /  1015.5hPa SW 4.2mph /  6.8km/h 9mph /  14.5km/h 87% 0.00in /  0mm 25 W/m2
06:29 65.8 °F /  18.8 °C 61.9 °F /  16.6 °C 29.99in /  1015.5hPa SW 6.2mph /  10km/h 10mph /  16.1km/h 87% 0.00in /  0mm 26 W/m2
06:34 65.8 °F /  18.8 °C 61.9 °F /  16.6 °C 29.99in /  1015.5hPa WSW 6mph /  9.7km/h 10mph /  16.1km/h 87% 0.00in /  0mm 39 W/m2
06:39 66 °F /  18.9 °C 62.1 °F /  16.7 °C 29.99in /  1015.5hPa SW 6.2mph /  10km/h 13mph /  20.9km/h 87% 0.00in /  0mm 51 W/m2
06:44 66 °F /  18.9 °C 62.1 °F /  16.7 °C 29.99in /  1015.5hPa SW 6mph /  9.7km/h 14mph /  22.5km/h 87% 0.00in /  0mm 53 W/m2
06:49 66 °F /  18.9 °C 62.1 °F /  16.7 °C 29.99in /  1015.5hPa SW 3.9mph /  6.3km/h 11mph /  17.7km/h 87% 0.00in /  0mm 54 W/m2
06:54 66.1 °F /  18.9 °C 62.1 °F /  16.7 °C 29.99in /  1015.5hPa SW 6.3mph /  10.1km/h 12mph /  19.3km/h 87% 0.00in /  0mm 54 W/m2
06:59 66.1 °F /  18.9 °C 62.1 °F /  16.7 °C 29.99in /  1015.5hPa SW 6.3mph /  10.1km/h 14mph /  22.5km/h 86.8% 0.00in /  0mm 65 W/m2
07:04 66.2 °F /  19 °C 62.2 °F /  16.8 °C 29.99in /  1015.5hPa SW 7.6mph /  12.2km/h 12mph /  19.3km/h 87% 0.00in /  0mm 77 W/m2
07:09 66.2 °F /  19 °C 62.1 °F /  16.7 °C 29.99in /  1015.5hPa SW 5.8mph /  9.3km/h 12mph /  19.3km/h 86.8% 0.00in /  0mm 84 W/m2
07:14 66.3 °F /  19.1 °C 62.3 °F /  16.8 °C 29.99in /  1015.5hPa SW 5.3mph /  8.5km/h 12mph /  19.3km/h 87% 0.00in /  0mm 79 W/m2
07:19 66.4 °F /  19.1 °C 62.4 °F /  16.9 °C 29.99in /  1015.5hPa WSW 5.2mph /  8.4km/h 13mph /  20.9km/h 87% 0.00in /  0mm 84 W/m2
07:24 66.5 °F /  19.2 °C 62.5 °F /  16.9 °C 29.99in /  1015.5hPa WSW 4.1mph /  6.6km/h 13mph /  20.9km/h 87% 0.00in /  0mm 113 W/m2
07:29 66.5 °F /  19.2 °C 62.2 °F /  16.8 °C 29.99in /  1015.5hPa WSW 6.1mph /  9.8km/h 12mph /  19.3km/h 86% 0.00in /  0mm 142 W/m2
07:34 66.6 °F /  19.2 °C 62.2 °F /  16.8 °C 29.99in /  1015.5hPa West 4.1mph /  6.6km/h 10mph /  16.1km/h 86% 0.00in /  0mm 144 W/m2
07:39 66.7 °F /  19.3 °C 62.4 °F /  16.9 °C 29.99in /  1015.5hPa SW 4.9mph /  7.9km/h 10mph /  16.1km/h 86% 0.00in /  0mm 134 W/m2
07:44 66.7 °F /  19.3 °C 62.4 °F /  16.9 °C 29.99in /  1015.5hPa WSW 7.8mph /  12.6km/h 13mph /  20.9km/h 86% 0.00in /  0mm 113 W/m2
07:49 66.9 °F /  19.4 °C 62.6 °F /  17 °C 29.99in /  1015.5hPa WSW 4.5mph /  7.2km/h 11mph /  17.7km/h 86% 0.00in /  0mm 148 W/m2
07:54 66.9 °F /  19.4 °C 62.6 °F /  17 °C 29.99in /  1015.5hPa WSW 4.3mph /  6.9km/h 9mph /  14.5km/h 86% 0.00in /  0mm 134 W/m2
07:59 67.2 °F /  19.6 °C 62.9 °F /  17.2 °C 29.99in /  1015.5hPa WSW 5.2mph /  8.4km/h 14mph /  22.5km/h 86% 0.00in /  0mm 137 W/m2
08:04 67 °F /  19.4 °C 62.7 °F /  17.1 °C 30.00in /  1015.8hPa WSW 5mph /  8km/h 12mph /  19.3km/h 86% 0.00in /  0mm 127 W/m2
08:09 67.1 °F /  19.5 °C 62.8 °F /  17.1 °C 30.00in /  1015.8hPa WSW 7.8mph /  12.6km/h 13mph /  20.9km/h 86% 0.00in /  0mm 98 W/m2
08:14 67.1 °F /  19.5 °C 62.8 °F /  17.1 °C 30.00in /  1015.8hPa WSW 5.2mph /  8.4km/h 15mph /  24.1km/h 86% 0.00in /  0mm 113 W/m2
08:19 67.1 °F /  19.5 °C 62.8 °F /  17.1 °C 30.00in /  1015.8hPa SW 6.5mph /  10.5km/h 13mph /  20.9km/h 86% 0.00in /  0mm 169 W/m2
08:24 67.1 °F /  19.5 °C 62.8 °F /  17.1 °C 30.00in /  1015.8hPa WSW 8.4mph /  13.5km/h 15mph /  24.1km/h 86% 0.00in /  0mm 176 W/m2
08:29 67.3 °F /  19.6 °C 63 °F /  17.2 °C 30.00in /  1015.8hPa SW 5.2mph /  8.4km/h 13mph /  20.9km/h 86% 0.00in /  0mm 169 W/m2
08:34 67.5 °F /  19.7 °C 63 °F /  17.2 °C 30.00in /  1015.8hPa WSW 7.2mph /  11.6km/h 12mph /  19.3km/h 85.4% 0.00in /  0mm 137 W/m2
08:39 67.7 °F /  19.8 °C 63 °F /  17.2 °C 30.00in /  1015.8hPa WSW 7.2mph /  11.6km/h 13mph /  20.9km/h 85% 0.00in /  0mm 141 W/m2
08:44 67.9 °F /  19.9 °C 63.2 °F /  17.3 °C 30.00in /  1015.8hPa WSW 7.9mph /  12.7km/h 15mph /  24.1km/h 85% 0.00in /  0mm 149 W/m2
08:49 68 °F /  20 °C 63.3 °F /  17.4 °C 30.00in /  1015.8hPa SW 5.6mph /  9km/h 12mph /  19.3km/h 85% 0.00in /  0mm 178 W/m2
08:54 68.2 °F /  20.1 °C 63.5 °F /  17.5 °C 30.00in /  1015.8hPa WSW 5.3mph /  8.5km/h 11mph /  17.7km/h 85% 0.00in /  0mm 206 W/m2
08:59 68.5 °F /  20.3 °C 63.5 °F /  17.5 °C 30.00in /  1015.8hPa SW 4.6mph /  7.4km/h 11mph /  17.7km/h 84.2% 0.00in /  0mm 186 W/m2
09:04 68.4 °F /  20.2 °C 63.3 °F /  17.4 °C 30.01in /  1016.1hPa WSW 10.8mph /  17.4km/h 17mph /  27.4km/h 84% 0.00in /  0mm 206 W/m2
09:09 68.2 °F /  20.1 °C 63.1 °F /  17.3 °C 30.00in /  1015.8hPa SW 6.6mph /  10.6km/h 16mph /  25.7km/h 84% 0.00in /  0mm 149 W/m2
09:14 67.8 °F /  19.9 °C 63 °F /  17.2 °C 30.00in /  1015.8hPa WSW 7.4mph /  11.9km/h 16mph /  25.7km/h 84.6% 0.00in /  0mm 149 W/m2
09:18 67.8 °F /  19.9 °C 63.1 °F /  17.3 °C 30.00in /  1015.8hPa SW 4.5mph /  7.2km/h 12mph /  19.3km/h 85% 0.00in /  0mm 142 W/m2
09:24 67.9 °F /  19.9 °C 63.2 °F /  17.3 °C 30.00in /  1015.8hPa SSW 7mph /  11.3km/h 12mph /  19.3km/h 85% 0.00in /  0mm 120 W/m2
09:29 67.8 °F /  19.9 °C 63.2 °F /  17.3 °C 30.00in /  1015.8hPa WSW 8.6mph /  13.8km/h 13mph /  20.9km/h 85% 0.00in /  0mm 113 W/m2
09:34 67.8 °F /  19.9 °C 63.1 °F /  17.3 °C 30.00in /  1015.8hPa WSW 6.9mph /  11.1km/h 12mph /  19.3km/h 85% 0.00in /  0mm 151 W/m2
09:39 67.8 °F /  19.9 °C 63.1 °F /  17.3 °C 30.00in /  1015.8hPa WSW 6.6mph /  10.6km/h 13mph /  20.9km/h 85% 0.00in /  0mm 151 W/m2
09:44 67.9 °F /  19.9 °C 63.2 °F /  17.3 °C 30.00in /  1015.8hPa WSW 5mph /  8km/h 13mph /  20.9km/h 85% 0.00in /  0mm 218 W/m2
09:49 68.2 °F /  20.1 °C 63.5 °F /  17.5 °C 30.00in /  1015.8hPa WSW 5.8mph /  9.3km/h 12mph /  19.3km/h 85% 0.00in /  0mm 267 W/m2
09:54 68.4 °F /  20.2 °C 63.7 °F /  17.6 °C 29.99in /  1015.5hPa SW 7.2mph /  11.6km/h 15mph /  24.1km/h 85% 0.00in /  0mm 294 W/m2
09:59 68.5 °F /  20.3 °C 63.9 °F /  17.7 °C 29.99in /  1015.5hPa WSW 6.7mph /  10.8km/h 18mph /  29km/h 85% 0.00in /  0mm 343 W/m2
10:04 68.8 °F /  20.4 °C 63.8 °F /  17.7 °C 29.99in /  1015.5hPa WSW 8mph /  12.9km/h 18mph /  29km/h 84% 0.00in /  0mm 306 W/m2
10:09 69.3 °F /  20.7 °C 64 °F /  17.8 °C 29.99in /  1015.5hPa SW 7.6mph /  12.2km/h 14mph /  22.5km/h 83.4% 0.00in /  0mm 320 W/m2
10:14 69.4 °F /  20.8 °C 64 °F /  17.8 °C 29.99in /  1015.5hPa WSW 10.6mph /  17.1km/h 15mph /  24.1km/h 83% 0.00in /  0mm 304 W/m2
10:19 69.4 °F /  20.8 °C 64 °F /  17.8 °C 29.99in /  1015.5hPa WSW 8mph /  12.9km/h 19mph /  30.6km/h 83% 0.00in /  0mm 295 W/m2
10:24 69.6 °F /  20.9 °C 64.2 °F /  17.9 °C 29.99in /  1015.5hPa SW 6.2mph /  10km/h 14mph /  22.5km/h 83% 0.00in /  0mm 295 W/m2
10:29 69.7 °F /  20.9 °C 64.1 °F /  17.8 °C 29.99in /  1015.5hPa SW 8.9mph /  14.3km/h 15mph /  24.1km/h 82.3% 0.00in /  0mm 237 W/m2
10:34 69.7 °F /  20.9 °C 63.9 °F /  17.7 °C 29.99in /  1015.5hPa SW 8mph /  12.9km/h 14mph /  22.5km/h 82% 0.00in /  0mm 206 W/m2
10:39 69.6 °F /  20.9 °C 63.9 °F /  17.7 °C 29.99in /  1015.5hPa WSW 10.8mph /  17.4km/h 16mph /  25.7km/h 82% 0.00in /  0mm 114 W/m2
10:44 69.6 °F /  20.9 °C 63.9 °F /  17.7 °C 29.99in /  1015.5hPa WSW 7.4mph /  11.9km/h 12mph /  19.3km/h 82% 0.00in /  0mm 165 W/m2
10:49 69.9 °F /  21.1 °C 64.1 °F /  17.8 °C 29.99in /  1015.5hPa SW 6mph /  9.7km/h 9mph /  14.5km/h 82% 0.00in /  0mm 148 W/m2
10:54 70 °F /  21.1 °C 64.2 °F /  17.9 °C 29.99in /  1015.5hPa WSW 6.4mph /  10.3km/h 14mph /  22.5km/h 82% 0.00in /  0mm 151 W/m2
10:59 70.2 °F /  21.2 °C 64.4 °F /  18 °C 29.99in /  1015.5hPa WSW 6.5mph /  10.5km/h 12mph /  19.3km/h 82% 0.00in /  0mm 156 W/m2
11:04 70.3 °F /  21.3 °C 64.3 °F /  17.9 °C 29.99in /  1015.5hPa WSW 4.8mph /  7.7km/h 10mph /  16.1km/h 81.4% 0.00in /  0mm 230 W/m2
11:09 70.5 °F /  21.4 °C 64.4 °F /  18 °C 29.99in /  1015.5hPa WSW 7.4mph /  11.9km/h 13mph /  20.9km/h 81% 0.00in /  0mm 248 W/m2
11:14 70.5 °F /  21.4 °C 64.4 °F /  18 °C 29.99in /  1015.5hPa WSW 8mph /  12.9km/h 14mph /  22.5km/h 81% 0.00in /  0mm 309 W/m2
11:19 70.7 °F /  21.5 °C 64.6 °F /  18.1 °C 29.99in /  1015.5hPa WSW 5.2mph /  8.4km/h 14mph /  22.5km/h 80.8% 0.00in /  0mm 272 W/m2
11:24 71.1 °F /  21.7 °C 64.8 °F /  18.2 °C 30.00in /  1015.8hPa WSW 8.2mph /  13.2km/h 18mph /  29km/h 80.4% 0.00in /  0mm 236 W/m2
11:29 71 °F /  21.7 °C 64.6 °F /  18.1 °C 30.00in /  1015.8hPa WSW 7.4mph /  11.9km/h 20mph /  32.2km/h 80.2% 0.00in /  0mm 195 W/m2
11:34 70.7 °F /  21.5 °C 64.6 °F /  18.1 °C 30.00in /  1015.8hPa WSW 10mph /  16.1km/h 19mph /  30.6km/h 81% 0.00in /  0mm 223 W/m2
11:39 70.3 °F /  21.3 °C 64.6 °F /  18.1 °C 30.00in /  1015.8hPa WSW 8mph /  12.9km/h 15mph /  24.1km/h 81.8% 0.00in /  0mm 285 W/m2
11:44 70.8 °F /  21.6 °C 65 °F /  18.3 °C 30.00in /  1015.8hPa WSW 7.6mph /  12.2km/h 15mph /  24.1km/h 82% 0.00in /  0mm 218 W/m2
11:49 70.8 °F /  21.6 °C 64.9 °F /  18.3 °C 30.00in /  1015.8hPa West 8.7mph /  14km/h 14mph /  22.5km/h 81.8% 0.00in /  0mm 162 W/m2
11:54 70.5 °F /  21.4 °C 64.8 °F /  18.2 °C 30.00in /  1015.8hPa West 9.6mph /  15.4km/h 15mph /  24.1km/h 82% 0.00in /  0mm 172 W/m2
11:59 70.5 °F /  21.4 °C 64.8 °F /  18.2 °C 30.00in /  1015.8hPa West 7.6mph /  12.2km/h 15mph /  24.1km/h 82% 0.00in /  0mm 171 W/m2
12:04 70.7 °F /  21.5 °C 64.9 °F /  18.3 °C 30.00in /  1015.8hPa WSW 5.6mph /  9km/h 11mph /  17.7km/h 82% 0.00in /  0mm 276 W/m2
12:09 71.2 °F /  21.8 °C 65.1 °F /  18.4 °C 30.00in /  1015.8hPa WSW 8.8mph /  14.2km/h 13mph /  20.9km/h 81.2% 0.00in /  0mm 334 W/m2
12:14 71.8 °F /  22.1 °C 65.3 °F /  18.5 °C 30.00in /  1015.8hPa WSW 7.4mph /  11.9km/h 13mph /  20.9km/h 80% 0.00in /  0mm 315 W/m2
12:19 72 °F /  22.2 °C 65.3 °F /  18.5 °C 29.99in /  1015.5hPa WSW 7.5mph /  12.1km/h 17mph /  27.4km/h 79.2% 0.00in /  0mm 436 W/m2
12:24 72.1 °F /  22.3 °C 65.2 °F /  18.4 °C 29.99in /  1015.5hPa West 6.6mph /  10.6km/h 14mph /  22.5km/h 78.8% 0.00in /  0mm 308 W/m2
12:29 72.1 °F /  22.3 °C 65 °F /  18.3 °C 30.00in /  1015.8hPa WSW 9mph /  14.5km/h 16mph /  25.7km/h 78.2% 0.00in /  0mm 241 W/m2
12:34 72.1 °F /  22.3 °C 65.2 °F /  18.4 °C 29.99in /  1015.5hPa WSW 5.1mph /  8.2km/h 14mph /  22.5km/h 79% 0.00in /  0mm 167 W/m2
12:39 72.1 °F /  22.3 °C 65.3 °F /  18.5 °C 29.99in /  1015.5hPa West 5.8mph /  9.3km/h 11mph /  17.7km/h 79% 0.00in /  0mm 153 W/m2
12:44 72.1 °F /  22.3 °C 65.2 °F /  18.4 °C 29.99in /  1015.5hPa West 9.2mph /  14.8km/h 15mph /  24.1km/h 78.6% 0.00in /  0mm 241 W/m2
12:49 72.2 °F /  22.3 °C 65 °F /  18.3 °C 29.99in /  1015.5hPa West 5.9mph /  9.5km/h 14mph /  22.5km/h 78% 0.00in /  0mm 287 W/m2
12:53 72.5 °F /  22.5 °C 65.3 °F /  18.5 °C 29.99in /  1015.5hPa West 9mph /  14.5km/h 12mph /  19.3km/h 78% 0.00in /  0mm 292 W/m2
12:59 72.7 °F /  22.6 °C 65.4 °F /  18.6 °C 29.99in /  1015.5hPa WSW 7.1mph /  11.4km/h 16mph /  25.7km/h 77.8% 0.00in /  0mm 274 W/m2
13:04 72.9 °F /  22.7 °C 65.7 °F /  18.7 °C 29.99in /  1015.5hPa West 5.3mph /  8.5km/h 15mph /  24.1km/h 78% 0.00in /  0mm 387 W/m2
13:09 72.3 °F /  22.4 °C 65.1 °F /  18.4 °C 29.99in /  1015.5hPa WSW 10.8mph /  17.4km/h 18mph /  29km/h 78% 0.00in /  0mm 385 W/m2
13:14 72.1 °F /  22.3 °C 65.3 °F /  18.5 °C 29.99in /  1015.5hPa WSW 10.1mph /  16.3km/h 17mph /  27.4km/h 79% 0.00in /  0mm 547 W/m2
13:19 72.3 °F /  22.4 °C 65.5 °F /  18.6 °C 29.99in /  1015.5hPa West 9.4mph /  15.1km/h 18mph /  29km/h 79% 0.00in /  0mm 313 W/m2
13:24 72.1 °F /  22.3 °C 65.4 °F /  18.6 °C 29.99in /  1015.5hPa WNW 8.6mph /  13.8km/h 17mph /  27.4km/h 79.2% 0.00in /  0mm 329 W/m2
13:29 72 °F /  22.2 °C 65.5 °F /  18.6 °C 29.99in /  1015.5hPa West 5.7mph /  9.2km/h 14mph /  22.5km/h 80% 0.00in /  0mm 309 W/m2
13:34 72 °F /  22.2 °C 65.6 °F /  18.7 °C 29.99in /  1015.5hPa West 8.2mph /  13.2km/h 20mph /  32.2km/h 80.4% 0.00in /  0mm 325 W/m2
13:39 72.1 °F /  22.3 °C 65.7 °F /  18.7 °C 29.99in /  1015.5hPa WSW 9.6mph /  15.4km/h 13mph /  20.9km/h 80% 0.00in /  0mm 327 W/m2
13:44 72.1 °F /  22.3 °C 65.7 °F /  18.7 °C 29.99in /  1015.5hPa WNW 10mph /  16.1km/h 16mph /  25.7km/h 80% 0.00in /  0mm 355 W/m2
13:49 71.9 °F /  22.2 °C 65.7 °F /  18.7 °C 29.99in /  1015.5hPa West 9.2mph /  14.8km/h 14mph /  22.5km/h 80.8% 0.00in /  0mm 329 W/m2
13:54 71.5 °F /  21.9 °C 65.6 °F /  18.7 °C 29.99in /  1015.5hPa West 12.7mph /  20.4km/h 17mph /  27.4km/h 81.6% 0.00in /  0mm 383 W/m2
13:59 71.2 °F /  21.8 °C 65.7 °F /  18.7 °C 29.99in /  1015.5hPa WNW 8.1mph /  13km/h 17mph /  27.4km/h 82.6% 0.00in /  0mm 427 W/m2
14:04 71.1 °F /  21.7 °C 65.7 °F /  18.7 °C 29.99in /  1015.5hPa WNW 7.1mph /  11.4km/h 14mph /  22.5km/h 83% 0.00in /  0mm 308 W/m2
14:09 70.9 °F /  21.6 °C 65.6 °F /  18.7 °C 29.99in /  1015.5hPa WNW 6.8mph /  10.9km/h 14mph /  22.5km/h 83.2% 0.00in /  0mm 346 W/m2
14:14 71.1 °F /  21.7 °C 66 °F /  18.9 °C 29.99in /  1015.5hPa WNW 5.6mph /  9km/h 10mph /  16.1km/h 84% 0.00in /  0mm 306 W/m2
14:19 71.4 °F /  21.9 °C 66.1 °F /  18.9 °C 29.98in /  1015.1hPa WSW 7.5mph /  12.1km/h 9mph /  14.5km/h 83.2% 0.00in /  0mm 385 W/m2
14:24 71.9 °F /  22.2 °C 66.5 °F /  19.2 °C 29.98in /  1015.1hPa West 4.8mph /  7.7km/h 10mph /  16.1km/h 82.8% 0.00in /  0mm 577 W/m2
14:29 72.8 °F /  22.7 °C 66.7 °F /  19.3 °C 29.98in /  1015.1hPa WSW 6.6mph /  10.6km/h 12mph /  19.3km/h 81.2% 0.00in /  0mm 555 W/m2
14:34 73.3 °F /  22.9 °C 66.6 °F /  19.2 °C 29.98in /  1015.1hPa West 8.5mph /  13.7km/h 14mph /  22.5km/h 79.2% 0.00in /  0mm 664 W/m2
14:39 73.8 °F /  23.2 °C 66.4 °F /  19.1 °C 29.98in /  1015.1hPa West 10.2mph /  16.4km/h 21mph /  33.8km/h 77.8% 0.00in /  0mm 1056 W/m2
14:44 74.3 °F /  23.5 °C 66.3 °F /  19.1 °C 29.98in /  1015.1hPa West 6.6mph /  10.6km/h 17mph /  27.4km/h 76.4% 0.00in /  0mm 991 W/m2
14:49 74.7 °F /  23.7 °C 66.6 °F /  19.2 °C 29.98in /  1015.1hPa WNW 9.4mph /  15.1km/h 16mph /  25.7km/h 75.8% 0.00in /  0mm 599 W/m2
14:54 74.6 °F /  23.7 °C 66.2 °F /  19 °C 29.98in /  1015.1hPa West 7.2mph /  11.6km/h 15mph /  24.1km/h 75% 0.00in /  0mm 438 W/m2
14:59 74.8 °F /  23.8 °C 65.9 °F /  18.8 °C 29.98in /  1015.1hPa WSW 7.6mph /  12.2km/h 15mph /  24.1km/h 74% 0.00in /  0mm 728 W/m2
15:04 75 °F /  23.9 °C 66.2 °F /  19 °C 29.97in /  1014.8hPa West 8mph /  12.9km/h 12mph /  19.3km/h 74% 0.00in /  0mm 728 W/m2
15:09 75.1 °F /  23.9 °C 65.9 °F /  18.8 °C 29.97in /  1014.8hPa West 7mph /  11.3km/h 13mph /  20.9km/h 73% 0.00in /  0mm 311 W/m2
15:14 75.9 °F /  24.4 °C 66.2 °F /  19 °C 29.97in /  1014.8hPa West 9mph /  14.5km/h 13mph /  20.9km/h 72% 0.00in /  0mm 879 W/m2
15:19 76.4 °F /  24.7 °C 65.9 °F /  18.8 °C 29.97in /  1014.8hPa WSW 11.4mph /  18.3km/h 18mph /  29km/h 70% 0.00in /  0mm 942 W/m2
15:24 76.6 °F /  24.8 °C 65.6 °F /  18.7 °C 29.97in /  1014.8hPa West 10.4mph /  16.7km/h 18mph /  29km/h 69% 0.00in /  0mm 870 W/m2
15:29 76.8 °F /  24.9 °C 65.7 °F /  18.7 °C 29.96in /  1014.4hPa WSW 9.8mph /  15.8km/h 17mph /  27.4km/h 68.6% 0.00in /  0mm 865 W/m2
15:34 76.7 °F /  24.8 °C 65.4 °F /  18.6 °C 29.96in /  1014.4hPa SW 11.2mph /  18km/h 18mph /  29km/h 68% 0.00in /  0mm 865 W/m2
15:39 76.8 °F /  24.9 °C 65.6 °F /  18.7 °C 29.96in /  1014.4hPa WSW 8.3mph /  13.4km/h 13mph /  20.9km/h 68.6% 0.00in /  0mm 905 W/m2
15:44 77.1 °F /  25.1 °C 65.8 °F /  18.8 °C 29.96in /  1014.4hPa West 8.4mph /  13.5km/h 15mph /  24.1km/h 68% 0.00in /  0mm 336 W/m2
15:49 77.2 °F /  25.1 °C 65.8 °F /  18.8 °C 29.96in /  1014.4hPa WSW 8.8mph /  14.2km/h 17mph /  27.4km/h 68% 0.00in /  0mm 244 W/m2
15:54 76.8 °F /  24.9 °C 65.4 °F /  18.6 °C 29.96in /  1014.4hPa West 9.3mph /  15km/h 15mph /  24.1km/h 67.8% 0.00in /  0mm 350 W/m2
15:59 76.7 °F /  24.8 °C 65.5 °F /  18.6 °C 29.96in /  1014.4hPa West 6.6mph /  10.6km/h 15mph /  24.1km/h 68.4% 0.00in /  0mm 338 W/m2
16:04 76.6 °F /  24.8 °C 65.7 °F /  18.7 °C 29.96in /  1014.4hPa WSW 7.4mph /  11.9km/h 13mph /  20.9km/h 69% 0.00in /  0mm 334 W/m2
16:09 76.8 °F /  24.9 °C 65.7 °F /  18.7 °C 29.96in /  1014.4hPa WSW 11.3mph /  18.2km/h 18mph /  29km/h 68.6% 0.00in /  0mm 350 W/m2
16:14 76.5 °F /  24.7 °C 65.4 °F /  18.6 °C 29.96in /  1014.4hPa WSW 7.8mph /  12.6km/h 18mph /  29km/h 68.8% 0.00in /  0mm 359 W/m2
16:19 76.5 °F /  24.7 °C 65.5 °F /  18.6 °C 29.96in /  1014.4hPa WSW 7.2mph /  11.6km/h 13mph /  20.9km/h 69% 0.00in /  0mm 415 W/m2
16:24 76.5 °F /  24.7 °C 65.5 °F /  18.6 °C 29.96in /  1014.4hPa West 8.2mph /  13.2km/h 12mph /  19.3km/h 69% 0.00in /  0mm 308 W/m2
16:29 76.4 °F /  24.7 °C 65.6 °F /  18.7 °C 29.96in /  1014.4hPa West 7.9mph /  12.7km/h 11mph /  17.7km/h 69.4% 0.00in /  0mm 330 W/m2
16:34 76.2 °F /  24.6 °C 65.8 °F /  18.8 °C 29.96in /  1014.4hPa West 7.8mph /  12.6km/h 13mph /  20.9km/h 70.2% 0.00in /  0mm 294 W/m2
16:39 75.6 °F /  24.2 °C 65.8 °F /  18.8 °C 29.96in /  1014.4hPa WNW 8.6mph /  13.8km/h 12mph /  19.3km/h 71.8% 0.00in /  0mm 258 W/m2
16:44 75.4 °F /  24.1 °C 66.2 °F /  19 °C 29.96in /  1014.4hPa WNW 3.6mph /  5.8km/h 9mph /  14.5km/h 73% 0.00in /  0mm 264 W/m2
16:49 75 °F /  23.9 °C 66.2 °F /  19 °C 29.96in /  1014.4hPa NW 7.2mph /  11.6km/h 12mph /  19.3km/h 73.8% 0.00in /  0mm 209 W/m2
16:54 74.8 °F /  23.8 °C 66 °F /  18.9 °C 29.96in /  1014.4hPa WNW 6.1mph /  9.8km/h 11mph /  17.7km/h 74% 0.00in /  0mm 193 W/m2
16:59 74.5 °F /  23.6 °C 66 °F /  18.9 °C 29.96in /  1014.4hPa WNW 4.1mph /  6.6km/h 11mph /  17.7km/h 75% 0.00in /  0mm 392 W/m2
17:04 74.5 °F /  23.6 °C 66 °F /  18.9 °C 29.96in /  1014.4hPa WNW 6.1mph /  9.8km/h 12mph /  19.3km/h 75% 0.00in /  0mm 311 W/m2
17:09 74.1 °F /  23.4 °C 65.9 °F /  18.8 °C 29.96in /  1014.4hPa NW 5.9mph /  9.5km/h 11mph /  17.7km/h 75.8% 0.00in /  0mm 225 W/m2
17:14 73.9 °F /  23.3 °C 65.8 °F /  18.8 °C 29.96in /  1014.4hPa WNW 4mph /  6.4km/h 11mph /  17.7km/h 76% 0.00in /  0mm 199 W/m2
17:19 73.8 °F /  23.2 °C 66 °F /  18.9 °C 29.96in /  1014.4hPa NW 4.9mph /  7.9km/h 14mph /  22.5km/h 77% 0.00in /  0mm 186 W/m2
17:24 73.4 °F /  23 °C 65.7 °F /  18.7 °C 29.96in /  1014.4hPa NW 4.5mph /  7.2km/h 14mph /  22.5km/h 77% 0.00in /  0mm 114 W/m2
17:29 73 °F /  22.8 °C 65.5 °F /  18.6 °C 29.96in /  1014.4hPa WNW 4.1mph /  6.6km/h 12mph /  19.3km/h 77% 0.00in /  0mm 223 W/m2
17:34 73.2 °F /  22.9 °C 65.7 °F /  18.7 °C 29.96in /  1014.4hPa NW 5mph /  8km/h 9mph /  14.5km/h 77% 0.00in /  0mm 306 W/m2
17:39 73.5 °F /  23.1 °C 65.8 °F /  18.8 °C 29.96in /  1014.4hPa WNW 5.8mph /  9.3km/h 11mph /  17.7km/h 77% 0.00in /  0mm 229 W/m2
17:44 73.2 °F /  22.9 °C 65.7 °F /  18.7 °C 29.96in /  1014.4hPa NW 4.9mph /  7.9km/h 10mph /  16.1km/h 77% 0.00in /  0mm 221 W/m2
17:49 73.1 °F /  22.8 °C 65.6 °F /  18.7 °C 29.96in /  1014.4hPa WNW 5.1mph /  8.2km/h 9mph /  14.5km/h 77% 0.00in /  0mm 176 W/m2
17:54 73 °F /  22.8 °C 65.5 °F /  18.6 °C 29.96in /  1014.4hPa WNW 4.1mph /  6.6km/h 8mph /  12.9km/h 77% 0.00in /  0mm 155 W/m2
17:59 73 °F /  22.8 °C 65.5 °F /  18.6 °C 29.96in /  1014.4hPa West 4.3mph /  6.9km/h 8mph /  12.9km/h 77% 0.00in /  0mm 167 W/m2
18:04 73 °F /  22.8 °C 65.4 °F /  18.6 °C 29.96in /  1014.4hPa WNW 5.2mph /  8.4km/h 9mph /  14.5km/h 77% 0.00in /  0mm 172 W/m2
18:09 72.9 °F /  22.7 °C 65.4 °F /  18.6 °C 29.96in /  1014.4hPa WNW 4.9mph /  7.9km/h 12mph /  19.3km/h 77% 0.00in /  0mm 155 W/m2
18:14 72.7 °F /  22.6 °C 65.1 °F /  18.4 °C 29.96in /  1014.4hPa West 5.7mph /  9.2km/h 12mph /  19.3km/h 77% 0.00in /  0mm 102 W/m2
18:18 72.7 °F /  22.6 °C 65.2 °F /  18.4 °C 29.96in /  1014.4hPa West 4.2mph /  6.8km/h 9mph /  14.5km/h 77.3% 0.00in /  0mm 120 W/m2
18:24 72.8 °F /  22.7 °C 65.2 °F /  18.4 °C 29.96in /  1014.4hPa West 5mph /  8km/h 10mph /  16.1km/h 77% 0.00in /  0mm 216 W/m2
18:29 73 °F /  22.8 °C 65.5 °F /  18.6 °C 29.96in /  1014.4hPa WSW 6.6mph /  10.6km/h 12mph /  19.3km/h 77% 0.00in /  0mm 237 W/m2
18:34 73.4 °F /  23 °C 65.7 °F /  18.7 °C 29.96in /  1014.4hPa WSW 5.3mph /  8.5km/h 10mph /  16.1km/h 77% 0.00in /  0mm 255 W/m2
18:39 73.9 °F /  23.3 °C 65.9 °F /  18.8 °C 29.96in /  1014.4hPa WSW 5.9mph /  9.5km/h 12mph /  19.3km/h 76.4% 0.00in /  0mm 383 W/m2
18:44 74.1 °F /  23.4 °C 66 °F /  18.9 °C 29.96in /  1014.4hPa WSW 4.5mph /  7.2km/h 9mph /  14.5km/h 76% 0.00in /  0mm 383 W/m2
18:49 74.1 °F /  23.4 °C 66 °F /  18.9 °C 29.96in /  1014.4hPa West 2.7mph /  4.3km/h 8mph /  12.9km/h 76% 0.00in /  0mm 369 W/m2
18:54 74.5 °F /  23.6 °C 66.4 °F /  19.1 °C 29.96in /  1014.4hPa WNW 4.7mph /  7.6km/h 9mph /  14.5km/h 76% 0.00in /  0mm 329 W/m2
18:59 74.5 °F /  23.6 °C 66.4 °F /  19.1 °C 29.95in /  1014.1hPa WNW 4.3mph /  6.9km/h 11mph /  17.7km/h 76% 0.00in /  0mm 160 W/m2
19:04 74 °F /  23.3 °C 65.9 °F /  18.8 °C 29.95in /  1014.1hPa West 3.9mph /  6.3km/h 10mph /  16.1km/h 76% 0.00in /  0mm 118 W/m2
19:09 73.8 °F /  23.2 °C 65.9 °F /  18.8 °C 29.95in /  1014.1hPa West 4mph /  6.4km/h 7mph /  11.3km/h 76.4% 0.00in /  0mm 264 W/m2
19:14 74 °F /  23.3 °C 66.2 °F /  19 °C 29.95in /  1014.1hPa West 4.5mph /  7.2km/h 8mph /  12.9km/h 76.8% 0.00in /  0mm 262 W/m2
19:19 73.9 °F /  23.3 °C 65.8 °F /  18.8 °C 29.95in /  1014.1hPa WSW 3.2mph /  5.1km/h 5mph /  8km/h 76% 0.00in /  0mm 216 W/m2
19:24 73.8 °F /  23.2 °C 65.8 °F /  18.8 °C 29.95in /  1014.1hPa WSW 4.2mph /  6.8km/h 8mph /  12.9km/h 76.4% 0.00in /  0mm 107 W/m2
19:29 73.5 °F /  23.1 °C 65.8 °F /  18.8 °C 29.95in /  1014.1hPa WSW 2.4mph /  3.9km/h 5mph /  8km/h 77% 0.00in /  0mm 47 W/m2
19:34 73.2 °F /  22.9 °C 65.7 °F /  18.7 °C 29.95in /  1014.1hPa West 4.2mph /  6.8km/h 7mph /  11.3km/h 77% 0.00in /  0mm 109 W/m2
19:39 73.2 °F /  22.9 °C 65.7 °F /  18.7 °C 29.95in /  1014.1hPa WNW 2.8mph /  4.5km/h 5mph /  8km/h 77% 0.00in /  0mm 44 W/m2
19:44 73 °F /  22.8 °C 65.5 °F /  18.6 °C 29.94in /  1013.8hPa WNW 0.8mph /  1.3km/h 3mph /  4.8km/h 77% 0.00in /  0mm 42 W/m2
19:49 73 °F /  22.8 °C 65.5 °F /  18.6 °C 29.95in /  1014.1hPa West 1.9mph /  3.1km/h 5mph /  8km/h 77% 0.00in /  0mm 40 W/m2
19:54 73 °F /  22.8 °C 65.5 °F /  18.6 °C 29.94in /  1013.8hPa WSW 3.6mph /  5.8km/h 7mph /  11.3km/h 77% 0.00in /  0mm 18 W/m2
19:59 73.1 °F /  22.8 °C 65.6 °F /  18.7 °C 29.94in /  1013.8hPa WSW 3.4mph /  5.5km/h 6mph /  9.7km/h 77% 0.00in /  0mm 7 W/m2
20:04 73 °F /  22.8 °C 65.5 °F /  18.6 °C 29.95in /  1014.1hPa WSW 3.7mph /  6km/h 7mph /  11.3km/h 77% 0.00in /  0mm 12 W/m2
20:09 73.1 °F /  22.8 °C 65.6 °F /  18.7 °C 29.95in /  1014.1hPa SW 2.9mph /  4.7km/h 5mph /  8km/h 77% 0.00in /  0mm 12 W/m2
20:14 73 °F /  22.8 °C 65.5 °F /  18.6 °C 29.95in /  1014.1hPa WSW 2mph /  3.2km/h 5mph /  8km/h 77% 0.00in /  0mm 5 W/m2
20:18 72.8 °F /  22.7 °C 65.5 °F /  18.6 °C 29.95in /  1014.1hPa West 4mph /  6.4km/h 8mph /  12.9km/h 77.8% 0.00in /  0mm 0 W/m2
20:24 72.3 °F /  22.4 °C 65.1 °F /  18.4 °C 29.95in /  1014.1hPa WNW 4.1mph /  6.6km/h 7mph /  11.3km/h 78% 0.00in /  0mm 0 W/m2
20:29 71.9 °F /  22.2 °C 64.7 °F /  18.2 °C 29.95in /  1014.1hPa WNW 4.6mph /  7.4km/h 9mph /  14.5km/h 78.2% 0.00in /  0mm 5 W/m2
20:34 71.5 °F /  21.9 °C 64.7 °F /  18.2 °C 29.95in /  1014.1hPa WNW 5.2mph /  8.4km/h 7mph /  11.3km/h 79% 0.00in /  0mm 7 W/m2
20:39 71.3 °F /  21.8 °C 64.7 °F /  18.2 °C 29.95in /  1014.1hPa West 3.7mph /  6km/h 7mph /  11.3km/h 79.4% 0.00in /  0mm 0 W/m2
20:44 71.1 °F /  21.7 °C 64.7 °F /  18.2 °C 29.95in /  1014.1hPa West 7mph /  11.3km/h 11mph /  17.7km/h 80% 0.00in /  0mm 0 W/m2
20:49 70.9 °F /  21.6 °C 64.8 °F /  18.2 °C 29.95in /  1014.1hPa West 4.5mph /  7.2km/h 9mph /  14.5km/h 81% 0.00in /  0mm 0 W/m2
20:54 70.4 °F /  21.3 °C 64.3 °F /  17.9 °C 29.95in /  1014.1hPa West 5.4mph /  8.7km/h 10mph /  16.1km/h 81% 0.00in /  0mm 0 W/m2
20:59 70.2 °F /  21.2 °C 64.5 °F /  18.1 °C 29.95in /  1014.1hPa WNW 3.9mph /  6.3km/h 9mph /  14.5km/h 82% 0.00in /  0mm 0 W/m2
21:04 70 °F /  21.1 °C 64.2 °F /  17.9 °C 29.95in /  1014.1hPa WNW 3.7mph /  6km/h 6mph /  9.7km/h 82% 0.00in /  0mm 0 W/m2
21:09 70 °F /  21.1 °C 64.4 °F /  18 °C 29.95in /  1014.1hPa WNW 2.5mph /  4km/h 7mph /  11.3km/h 82.4% 0.00in /  0mm 0 W/m2
21:14 70 °F /  21.1 °C 64.6 °F /  18.1 °C 29.95in /  1014.1hPa WNW 2.5mph /  4km/h 5mph /  8km/h 83% 0.00in /  0mm 0 W/m2
21:19 70 °F /  21.1 °C 64.6 °F /  18.1 °C 29.95in /  1014.1hPa WNW 1.3mph /  2.1km/h 4mph /  6.4km/h 83% 0.00in /  0mm 0 W/m2
21:24 70 °F /  21.1 °C 64.6 °F /  18.1 °C 29.96in /  1014.4hPa West 1.7mph /  2.7km/h 5mph /  8km/h 83% 0.00in /  0mm 0 W/m2
21:29 70 °F /  21.1 °C 64.6 °F /  18.1 °C 29.96in /  1014.4hPa West 2.5mph /  4km/h 6mph /  9.7km/h 83% 0.00in /  0mm 0 W/m2
21:34 69.8 °F /  21 °C 64.2 °F /  17.9 °C 29.96in /  1014.4hPa West 2.7mph /  4.3km/h 8mph /  12.9km/h 82.4% 0.00in /  0mm 0 W/m2
21:39 69.8 °F /  21 °C 63.9 °F /  17.7 °C 29.96in /  1014.4hPa WSW 4mph /  6.4km/h 8mph /  12.9km/h 81.8% 0.00in /  0mm 0 W/m2
21:44 69.6 °F /  20.9 °C 63.5 °F /  17.5 °C 29.96in /  1014.4hPa SW 3.6mph /  5.8km/h 7mph /  11.3km/h 81% 0.00in /  0mm 0 W/m2
21:49 69.6 °F /  20.9 °C 63.5 °F /  17.5 °C 29.96in /  1014.4hPa SW 4.4mph /  7.1km/h 8mph /  12.9km/h 81% 0.00in /  0mm 0 W/m2
21:54 69.5 °F /  20.8 °C 63.1 °F /  17.3 °C 29.95in /  1014.1hPa SW 4.5mph /  7.2km/h 9mph /  14.5km/h 80.2% 0.00in /  0mm 0 W/m2
21:59 69.3 °F /  20.7 °C 63 °F /  17.2 °C 29.95in /  1014.1hPa SW 5.9mph /  9.5km/h 10mph /  16.1km/h 80.4% 0.00in /  0mm 0 W/m2
22:04 69.2 °F /  20.7 °C 63 °F /  17.2 °C 29.95in /  1014.1hPa SW 6mph /  9.7km/h 9mph /  14.5km/h 81% 0.00in /  0mm 0 W/m2
22:09 69.1 °F /  20.6 °C 63 °F /  17.2 °C 29.95in /  1014.1hPa SW 4mph /  6.4km/h 10mph /  16.1km/h 81% 0.00in /  0mm 0 W/m2
22:14 68.9 °F /  20.5 °C 62.8 °F /  17.1 °C 29.95in /  1014.1hPa SW 3.1mph /  5km/h 9mph /  14.5km/h 81% 0.00in /  0mm 0 W/m2
22:19 68.7 °F /  20.4 °C 62.6 °F /  17 °C 29.95in /  1014.1hPa SSW 2.5mph /  4km/h 9mph /  14.5km/h 81% 0.00in /  0mm 0 W/m2
22:24 68.7 °F /  20.4 °C 62.6 °F /  17 °C 29.95in /  1014.1hPa SW 4.4mph /  7.1km/h 7mph /  11.3km/h 81% 0.00in /  0mm 0 W/m2
22:29 68.5 °F /  20.3 °C 62.4 °F /  16.9 °C 29.95in /  1014.1hPa SSW 4.2mph /  6.8km/h 7mph /  11.3km/h 81% 0.00in /  0mm 0 W/m2
22:34 68.4 °F /  20.2 °C 62.5 °F /  16.9 °C 29.95in /  1014.1hPa SSW 3.1mph /  5km/h 7mph /  11.3km/h 81.6% 0.00in /  0mm 0 W/m2
22:39 68.4 °F /  20.2 °C 62.6 °F /  17 °C 29.95in /  1014.1hPa SSW 2.8mph /  4.5km/h 5mph /  8km/h 82% 0.00in /  0mm 0 W/m2
22:44 68.3 °F /  20.2 °C 62.5 °F /  16.9 °C 29.95in /  1014.1hPa SW 2.6mph /  4.2km/h 7mph /  11.3km/h 82% 0.00in /  0mm 0 W/m2
22:49 68.1 °F /  20.1 °C 62.3 °F /  16.8 °C 29.95in /  1014.1hPa West 1.7mph /  2.7km/h 5mph /  8km/h 82% 0.00in /  0mm 0 W/m2
22:54 68 °F /  20 °C 62.2 °F /  16.8 °C 29.95in /  1014.1hPa West 1.7mph /  2.7km/h 4mph /  6.4km/h 82% 0.00in /  0mm 0 W/m2
22:59 68 °F /  20 °C 62.2 °F /  16.8 °C 29.95in /  1014.1hPa SW 1.6mph /  2.6km/h 9mph /  14.5km/h 82% 0.00in /  0mm 0 W/m2
23:04 67.9 °F /  19.9 °C 62.2 °F /  16.8 °C 29.94in /  1013.8hPa SW 3.4mph /  5.5km/h 9mph /  14.5km/h 82% 0.00in /  0mm 0 W/m2
23:09 67.8 °F /  19.9 °C 62.1 °F /  16.7 °C 29.94in /  1013.8hPa South 1.6mph /  2.6km/h 5mph /  8km/h 82% 0.00in /  0mm 0 W/m2
23:14 67.8 °F /  19.9 °C 62.1 °F /  16.7 °C 29.94in /  1013.8hPa SSW 1.7mph /  2.7km/h 4mph /  6.4km/h 82% 0.00in /  0mm 0 W/m2
23:19 67.7 °F /  19.8 °C 62 °F /  16.7 °C 29.94in /  1013.8hPa SSW 2.1mph /  3.4km/h 5mph /  8km/h 82% 0.00in /  0mm 0 W/m2
23:24 67.6 °F /  19.8 °C 61.9 °F /  16.6 °C 29.94in /  1013.8hPa SSW 0.5mph /  0.8km/h 3mph /  4.8km/h 82% 0.00in /  0mm 0 W/m2
23:29 67.5 °F /  19.7 °C 62.1 °F /  16.7 °C 29.94in /  1013.8hPa SSW 1.4mph /  2.3km/h 3mph /  4.8km/h 83% 0.00in /  0mm 0 W/m2
23:34 67.5 °F /  19.7 °C 62 °F /  16.7 °C 29.94in /  1013.8hPa SSW 3.5mph /  5.6km/h 7mph /  11.3km/h 82.8% 0.00in /  0mm 0 W/m2
23:39 67.1 °F /  19.5 °C 61.7 °F /  16.5 °C 29.94in /  1013.8hPa SW 2.8mph /  4.5km/h 5mph /  8km/h 83% 0.00in /  0mm 0 W/m2
23:44 66.9 °F /  19.4 °C 61.5 °F /  16.4 °C 29.94in /  1013.8hPa SW 2.2mph /  3.5km/h 5mph /  8km/h 83% 0.00in /  0mm 0 W/m2
23:49 66.9 °F /  19.4 °C 61.5 °F /  16.4 °C 29.94in /  1013.8hPa SW 1.9mph /  3.1km/h 5mph /  8km/h 83% 0.00in /  0mm 0 W/m2
23:54 66.7 °F /  19.3 °C 61.5 °F /  16.4 °C 29.94in /  1013.8hPa SW 1.5mph /  2.4km/h 7mph /  11.3km/h 83.4% 0.00in /  0mm 0 W/m2
23:58 66.7 °F /  19.3 °C 61.7 °F /  16.5 °C 29.94in /  1013.8hPa SSW 5.2mph /  8.4km/h 11mph /  17.7km/h 84% 0.00in /  0mm 0 W/m2
Bath Spa Weather
Compliments of Weather Underground - 2 mb